createdAt,value
2023-09-22T00:00:42.975Z,76898.91
2023-09-22T00:02:16.555Z,76904.84
2023-09-22T00:03:50.600Z,76912.75
2023-09-22T00:05:25.638Z,76912.75
2023-09-22T00:06:59.425Z,76908.78
2023-09-22T00:08:32.531Z,76908.78
2023-09-22T00:10:07.606Z,76902.84
2023-09-22T00:11:40.801Z,76904.84
2023-09-22T00:13:15.606Z,76914.72
2023-09-22T00:14:49.186Z,76916.69
2023-09-22T00:16:22.807Z,76912.75
2023-09-22T00:17:57.567Z,76930.53
2023-09-22T00:19:30.761Z,76942.41
2023-09-22T00:21:06.262Z,76952.28
2023-09-22T00:22:39.949Z,76966.13
2023-09-22T00:24:13.198Z,76956.25
2023-09-22T00:25:47.497Z,76948.34
2023-09-22T00:27:21.336Z,76964.16
2023-09-22T00:28:54.796Z,76944.38
2023-09-22T00:30:28.135Z,76960.22
2023-09-22T00:32:03.659Z,76964.16
2023-09-22T00:33:37.487Z,76974.06
2023-09-22T00:35:12.645Z,76997.78
2023-09-22T00:36:51.935Z,76950.31
2023-09-22T00:38:25.606Z,76956.25
2023-09-22T00:39:59.533Z,76944.38
2023-09-22T00:41:33.204Z,76934.50
2023-09-22T00:43:11.912Z,76960.22
2023-09-22T00:44:45.370Z,76976.03
2023-09-22T00:46:25.805Z,76942.41
2023-09-22T00:47:59.492Z,76934.50
2023-09-22T00:49:33.833Z,76924.59
2023-09-22T00:51:07.531Z,76944.38
2023-09-22T00:52:42.961Z,76960.22
2023-09-22T00:54:16.125Z,76942.41
2023-09-22T00:55:51.887Z,76956.25
2023-09-22T00:57:26.017Z,76940.44
2023-09-22T00:58:59.917Z,76928.56
2023-09-22T01:00:33.383Z,76932.53
2023-09-22T01:02:06.436Z,76926.59
2023-09-22T01:03:45.354Z,76936.47
2023-09-22T01:05:19.272Z,76940.44
2023-09-22T01:06:52.434Z,76930.53
2023-09-22T01:08:26.211Z,76938.44
2023-09-22T01:10:09.374Z,76948.34
2023-09-22T01:11:43.038Z,76948.34
2023-09-22T01:13:16.613Z,76964.16
2023-09-22T01:14:50.261Z,76968.13
2023-09-22T01:16:23.863Z,76976.03
2023-09-22T01:17:57.727Z,76976.03
2023-09-22T01:19:34.371Z,76968.13
2023-09-22T01:21:08.200Z,76976.03
2023-09-22T01:22:41.538Z,76976.03
2023-09-22T01:24:15.225Z,76976.03
2023-09-22T01:25:48.421Z,76976.03
2023-09-22T01:27:22.304Z,76979.97
2023-09-22T01:28:55.965Z,77011.63
2023-09-22T01:30:33.110Z,76991.84
2023-09-22T01:32:11.443Z,76991.84
2023-09-22T01:33:47.786Z,76999.75
2023-09-22T01:35:21.532Z,76995.81
2023-09-22T01:36:54.988Z,76999.75
2023-09-22T01:38:31.415Z,77013.59
2023-09-22T01:40:05.016Z,77019.53
2023-09-22T01:41:38.577Z,77017.56
2023-09-22T01:43:12.471Z,77009.66
2023-09-22T01:44:46.139Z,77013.59
2023-09-22T01:46:19.290Z,77013.59
2023-09-22T01:47:52.685Z,77011.63
2023-09-22T01:49:26.299Z,77011.63
2023-09-22T01:51:05.625Z,77051.19
2023-09-22T01:52:39.568Z,77007.66
2023-09-22T01:54:12.967Z,77001.72
2023-09-22T01:55:48.233Z,77001.72
2023-09-22T01:57:21.657Z,77003.72
2023-09-22T01:58:55.259Z,77057.09
2023-09-22T02:00:28.684Z,77007.66
2023-09-22T02:02:04.826Z,76999.75
2023-09-22T02:03:38.718Z,76999.75
2023-09-22T02:05:16.421Z,76997.78
2023-09-22T02:06:50.380Z,76999.75
2023-09-22T02:08:24.001Z,77007.66
2023-09-22T02:09:56.865Z,77001.72
2023-09-22T02:11:30.189Z,77003.72
2023-09-22T02:13:06.016Z,76985.91
2023-09-22T02:14:39.639Z,76974.06
2023-09-22T02:16:12.742Z,76979.97
2023-09-22T02:17:48.360Z,77029.41
2023-09-22T02:19:21.808Z,76987.88
2023-09-22T02:20:55.061Z,76991.84
2023-09-22T02:22:28.237Z,76993.81
2023-09-22T02:24:03.423Z,77003.72
2023-09-22T02:25:37.541Z,76985.91
2023-09-22T02:27:10.444Z,77009.66
2023-09-22T02:28:43.936Z,76968.13
2023-09-22T02:30:20.900Z,76962.19
2023-09-22T02:31:53.954Z,76954.28
2023-09-22T02:33:27.177Z,76924.59
2023-09-22T02:35:00.055Z,76896.94
2023-09-22T02:36:33.788Z,76845.50
2023-09-22T02:38:07.069Z,76794.09
2023-09-22T02:39:40.398Z,76742.69
2023-09-22T02:41:15.755Z,76675.44
2023-09-22T02:42:49.877Z,76647.75
2023-09-22T02:44:23.389Z,76616.13
2023-09-22T02:45:57.163Z,76598.31
2023-09-22T02:47:30.429Z,76568.66
2023-09-22T02:49:03.711Z,76525.16
2023-09-22T02:50:36.758Z,76513.28
2023-09-22T02:52:12.113Z,76556.81
2023-09-22T02:53:46.754Z,76604.25
2023-09-22T02:55:19.913Z,76643.81
2023-09-22T02:56:52.763Z,76675.44
2023-09-22T02:58:25.505Z,76683.34
2023-09-22T02:59:59.572Z,76716.97
2023-09-22T03:01:33.238Z,76738.72
2023-09-22T03:03:09.311Z,76707.09
2023-09-22T03:04:42.774Z,76722.91
2023-09-22T03:06:15.944Z,76730.81
2023-09-22T03:07:52.325Z,76718.94
2023-09-22T03:09:26.651Z,76732.78
2023-09-22T03:11:05.095Z,76742.69
2023-09-22T03:12:40.163Z,76764.44
2023-09-22T03:14:14.036Z,76766.41
2023-09-22T03:15:47.295Z,76770.38
2023-09-22T03:17:20.893Z,76778.28
2023-09-22T03:18:54.628Z,76788.16
2023-09-22T03:20:27.961Z,76762.44
2023-09-22T03:22:00.939Z,76750.59
2023-09-22T03:23:34.073Z,76782.22
2023-09-22T03:25:10.304Z,76803.97
2023-09-22T03:26:45.544Z,76754.53
2023-09-22T03:28:18.890Z,76758.50
2023-09-22T03:29:51.891Z,76768.38
2023-09-22T03:31:25.141Z,76752.56
2023-09-22T03:33:00.810Z,76760.47
2023-09-22T03:34:34.248Z,76770.38
2023-09-22T03:36:11.801Z,76774.31
2023-09-22T03:37:47.124Z,76794.09
2023-09-22T03:39:23.564Z,76766.41
2023-09-22T03:41:02.300Z,76756.53
2023-09-22T03:42:35.818Z,76758.50
2023-09-22T03:44:09.354Z,76760.47
2023-09-22T03:45:42.708Z,76760.47
2023-09-22T03:47:15.775Z,76752.56
2023-09-22T03:48:50.069Z,76758.50
2023-09-22T03:50:22.945Z,76762.44
2023-09-22T03:51:56.199Z,76782.22
2023-09-22T03:53:29.291Z,76792.13
2023-09-22T03:55:02.653Z,76786.19
2023-09-22T03:56:39.762Z,76768.38
2023-09-22T03:58:16.470Z,76762.44
2023-09-22T03:59:50.480Z,76756.53
2023-09-22T04:01:23.699Z,76758.50
2023-09-22T04:02:56.958Z,76768.38
2023-09-22T04:04:31.547Z,76819.81
2023-09-22T04:06:06.462Z,76817.81
2023-09-22T04:07:41.340Z,76768.38
2023-09-22T04:09:14.780Z,76758.50
2023-09-22T04:10:47.991Z,76758.50
2023-09-22T04:12:23.284Z,76715.00
2023-09-22T04:13:57.085Z,76711.03
2023-09-22T04:15:30.615Z,76705.09
2023-09-22T04:17:10.232Z,76679.41
2023-09-22T04:18:43.829Z,76653.69
2023-09-22T04:20:28.403Z,76639.84
2023-09-22T04:22:01.784Z,76608.22
2023-09-22T04:23:38.232Z,76580.53
2023-09-22T04:25:20.751Z,76560.75
2023-09-22T04:26:54.144Z,76552.84
2023-09-22T04:28:27.735Z,76517.25
2023-09-22T04:30:02.034Z,76513.28
2023-09-22T04:31:35.334Z,76475.72
2023-09-22T04:33:10.536Z,76438.16
2023-09-22T04:34:45.389Z,76406.53
2023-09-22T04:36:18.538Z,76370.94
2023-09-22T04:37:52.248Z,76355.13
2023-09-22T04:39:26.881Z,76351.16
2023-09-22T04:41:00.314Z,76384.78
2023-09-22T04:42:36.787Z,76382.78
2023-09-22T04:44:10.138Z,76363.03
2023-09-22T04:45:47.589Z,76363.03
2023-09-22T04:47:20.995Z,76359.06
2023-09-22T04:48:56.371Z,76355.13
2023-09-22T04:50:29.701Z,76337.31
2023-09-22T04:52:07.550Z,76307.66
2023-09-22T04:53:42.801Z,76303.69
2023-09-22T04:55:18.436Z,76339.28
2023-09-22T04:56:53.265Z,76244.38
2023-09-22T04:58:26.579Z,76228.56
2023-09-22T05:00:00.049Z,76198.91
2023-09-22T05:01:33.385Z,76149.47
2023-09-22T05:03:09.786Z,76159.38
2023-09-22T05:04:43.288Z,76125.75
2023-09-22T05:06:19.416Z,76119.81
2023-09-22T05:07:52.437Z,76131.69
2023-09-22T05:09:26.071Z,76143.56
2023-09-22T05:11:00.633Z,76192.97
2023-09-22T05:12:33.925Z,76149.47
2023-09-22T05:14:07.020Z,76153.44
2023-09-22T05:15:46.453Z,76179.13
2023-09-22T05:17:19.345Z,76161.34
2023-09-22T05:18:52.334Z,76196.94
2023-09-22T05:20:25.913Z,76204.84
2023-09-22T05:21:59.343Z,76200.88
2023-09-22T05:23:36.334Z,76208.78
2023-09-22T05:25:11.502Z,76218.69
2023-09-22T05:26:44.946Z,76206.81
2023-09-22T05:28:18.246Z,76256.25
2023-09-22T05:29:54.910Z,76272.06
2023-09-22T05:31:28.650Z,76279.97
2023-09-22T05:33:08.208Z,76256.25
2023-09-22T05:34:42.517Z,76272.06
2023-09-22T05:36:15.729Z,76264.16
2023-09-22T05:37:53.767Z,76283.94
2023-09-22T05:39:27.002Z,76291.84
2023-09-22T05:41:00.530Z,76274.03
2023-09-22T05:42:33.789Z,76281.97
2023-09-22T05:44:10.424Z,76283.94
2023-09-22T05:45:46.883Z,76272.06
2023-09-22T05:47:20.369Z,76264.16
2023-09-22T05:48:54.267Z,76252.28
2023-09-22T05:50:28.226Z,76252.28
2023-09-22T05:52:02.248Z,76268.13
2023-09-22T05:53:37.053Z,76224.63
2023-09-22T05:55:12.436Z,76218.69
2023-09-22T05:56:45.588Z,76212.75
2023-09-22T05:58:19.484Z,76222.63
2023-09-22T05:59:52.743Z,76212.75
2023-09-22T06:01:26.250Z,76198.91
2023-09-22T06:02:59.603Z,76196.94
2023-09-22T06:04:34.120Z,76183.09
2023-09-22T06:06:17.438Z,76206.81
2023-09-22T06:07:51.580Z,76202.88
2023-09-22T06:09:24.974Z,76189.03
2023-09-22T06:11:03.400Z,76175.19
2023-09-22T06:12:36.758Z,76183.09
2023-09-22T06:14:10.339Z,76192.97
2023-09-22T06:15:44.175Z,76165.31
2023-09-22T06:17:19.100Z,76165.31
2023-09-22T06:18:55.561Z,76153.44
2023-09-22T06:20:29.013Z,76189.03
2023-09-22T06:22:02.553Z,76169.25
2023-09-22T06:23:36.009Z,76165.31
2023-09-22T06:25:10.399Z,76194.97
2023-09-22T06:26:43.596Z,76159.38
2023-09-22T06:28:17.077Z,76133.66
2023-09-22T06:29:50.226Z,76141.56
2023-09-22T06:31:23.856Z,76147.50
2023-09-22T06:32:57.605Z,76129.72
2023-09-22T06:34:31.187Z,76133.66
2023-09-22T06:36:06.482Z,76107.97
2023-09-22T06:37:41.170Z,76102.03
2023-09-22T06:39:14.303Z,76096.09
2023-09-22T06:40:47.897Z,76113.91
2023-09-22T06:42:21.145Z,76078.31
2023-09-22T06:43:58.368Z,76098.06
2023-09-22T06:45:36.264Z,76102.03
2023-09-22T06:47:10.776Z,76113.91
2023-09-22T06:48:44.486Z,76102.03
2023-09-22T06:50:19.238Z,76090.16
2023-09-22T06:51:52.692Z,76078.31
2023-09-22T06:53:28.437Z,76102.03
2023-09-22T06:55:10.383Z,76086.22
2023-09-22T06:56:50.399Z,76046.66
2023-09-22T06:58:26.249Z,76034.81
2023-09-22T07:00:00.241Z,76013.06
2023-09-22T07:01:33.334Z,75991.31
2023-09-22T07:03:07.257Z,75961.66
2023-09-22T07:04:42.030Z,75941.88
2023-09-22T07:06:21.500Z,75932.00
2023-09-22T07:07:54.861Z,75900.38
2023-09-22T07:09:31.721Z,75856.88
2023-09-22T07:11:06.628Z,75852.91
2023-09-22T07:12:40.366Z,75833.16
2023-09-22T07:14:13.834Z,75797.56
2023-09-22T07:15:47.561Z,75779.75
2023-09-22T07:17:20.861Z,75765.94
2023-09-22T07:18:55.263Z,75793.59
2023-09-22T07:20:34.056Z,75813.38
2023-09-22T07:22:09.651Z,75835.13
2023-09-22T07:23:42.718Z,75837.09
2023-09-22T07:25:16.197Z,75805.47
2023-09-22T07:26:49.312Z,75793.59
2023-09-22T07:28:22.251Z,75803.50
2023-09-22T07:29:55.607Z,75773.84
2023-09-22T07:31:32.488Z,75783.72
2023-09-22T07:33:06.043Z,75777.78
2023-09-22T07:34:39.568Z,75726.38
2023-09-22T07:36:13.627Z,75682.91
2023-09-22T07:37:47.230Z,75694.75
2023-09-22T07:39:21.281Z,75641.38
2023-09-22T07:40:54.929Z,75655.22
2023-09-22T07:42:33.010Z,75619.63
2023-09-22T07:44:06.363Z,75599.88
2023-09-22T07:45:40.941Z,75591.97
2023-09-22T07:47:18.555Z,75570.22
2023-09-22T07:48:52.986Z,75532.66
2023-09-22T07:50:26.421Z,75605.78
2023-09-22T07:51:59.786Z,75637.44
2023-09-22T07:53:33.280Z,75641.38
2023-09-22T07:55:07.379Z,75578.13
2023-09-22T07:56:41.184Z,75603.81
2023-09-22T07:58:14.898Z,75597.88
2023-09-22T07:59:47.867Z,75544.50
2023-09-22T08:01:20.940Z,75558.34
2023-09-22T08:02:55.125Z,75560.31
2023-09-22T08:04:28.420Z,75536.59
2023-09-22T08:06:02.537Z,75512.88
2023-09-22T08:07:35.644Z,75540.56
2023-09-22T08:09:09.435Z,75530.66
2023-09-22T08:10:43.121Z,75499.03
2023-09-22T08:12:16.218Z,75501.03
2023-09-22T08:13:49.503Z,75493.13
2023-09-22T08:15:23.621Z,75433.81
2023-09-22T08:16:56.928Z,75461.47
2023-09-22T08:18:30.243Z,75410.09
2023-09-22T08:20:08.580Z,75406.13
2023-09-22T08:21:42.015Z,75372.53
2023-09-22T08:23:15.429Z,75336.94
2023-09-22T08:24:48.533Z,75305.31
2023-09-22T08:26:21.786Z,75299.38
2023-09-22T08:27:56.104Z,75263.81
2023-09-22T08:29:29.243Z,75279.63
2023-09-22T08:31:06.558Z,75248.00
2023-09-22T08:32:41.164Z,75291.47
2023-09-22T08:34:14.450Z,75275.66
2023-09-22T08:36:03.337Z,75251.94
2023-09-22T08:37:39.179Z,75283.56
2023-09-22T08:39:13.267Z,75259.84
2023-09-22T08:40:49.999Z,75248.00
2023-09-22T08:42:23.098Z,75244.03
2023-09-22T08:43:55.901Z,75208.47
2023-09-22T08:45:28.783Z,75212.41
2023-09-22T08:47:01.763Z,75196.59
2023-09-22T08:48:35.579Z,75180.78
2023-09-22T08:50:10.722Z,75166.94
2023-09-22T08:51:43.850Z,75135.31
2023-09-22T08:53:18.176Z,75182.75
2023-09-22T08:54:51.713Z,75153.09
2023-09-22T08:56:26.035Z,75113.56
2023-09-22T08:57:58.831Z,75111.59
2023-09-22T08:59:31.959Z,75121.47
2023-09-22T09:01:04.996Z,75192.63
2023-09-22T09:02:38.469Z,75145.19
2023-09-22T09:04:50.185Z,75127.41
2023-09-22T09:06:24.018Z,75125.44
2023-09-22T09:08:11.820Z,75127.41
2023-09-22T09:09:46.685Z,75137.28
2023-09-22T09:11:20.033Z,75166.94
2023-09-22T09:12:53.931Z,75168.91
2023-09-22T09:14:29.810Z,75161.00
2023-09-22T09:16:08.220Z,75157.06
2023-09-22T09:17:41.214Z,75170.91
2023-09-22T09:19:18.010Z,75153.09
2023-09-22T09:21:17.688Z,75155.09
2023-09-22T09:22:51.342Z,75157.06
2023-09-22T09:24:25.406Z,75145.19
2023-09-22T09:25:58.846Z,75149.16
2023-09-22T09:27:32.788Z,75153.09
2023-09-22T09:29:06.100Z,75149.16
2023-09-22T09:30:39.958Z,75137.28
2023-09-22T09:32:23.183Z,75143.22
2023-09-22T09:33:57.156Z,75123.47
2023-09-22T09:35:44.012Z,75103.69
2023-09-22T09:37:23.003Z,75101.72
2023-09-22T09:38:57.639Z,75093.81
2023-09-22T09:40:31.236Z,75125.44
2023-09-22T09:42:04.576Z,75093.81
2023-09-22T09:43:42.493Z,75113.56
2023-09-22T09:45:18.821Z,75117.53
2023-09-22T09:46:51.851Z,75137.28
2023-09-22T09:48:26.721Z,75145.19
2023-09-22T09:50:00.843Z,75135.31
2023-09-22T09:51:40.446Z,75066.13
2023-09-22T09:53:38.155Z,74998.94
2023-09-22T09:55:14.393Z,74975.22
2023-09-22T09:56:47.979Z,75006.84
2023-09-22T09:58:23.699Z,75018.69
2023-09-22T09:59:57.075Z,75064.16
2023-09-22T10:01:33.733Z,75070.09
2023-09-22T10:03:09.258Z,75113.56
2023-09-22T10:04:44.037Z,75046.38
2023-09-22T10:06:18.671Z,75016.72
2023-09-22T10:07:58.377Z,74983.13
2023-09-22T10:09:32.289Z,74953.47
2023-09-22T10:11:10.585Z,74939.63
2023-09-22T10:12:45.439Z,74975.22
2023-09-22T10:14:43.933Z,74947.53
2023-09-22T10:16:31.255Z,74943.59
2023-09-22T10:18:05.661Z,74939.63
2023-09-22T10:19:43.173Z,74919.88
2023-09-22T10:21:47.961Z,74953.47
2023-09-22T10:23:28.960Z,74977.19
2023-09-22T10:25:14.656Z,74981.13
2023-09-22T10:27:07.835Z,74943.59
2023-09-22T10:28:41.400Z,74876.38
2023-09-22T10:30:15.394Z,74860.56
2023-09-22T10:32:17.088Z,74886.25
2023-09-22T10:33:50.314Z,74911.97
2023-09-22T10:35:41.615Z,74909.97
2023-09-22T10:37:19.791Z,74892.19
2023-09-22T10:38:54.866Z,74872.44
2023-09-22T10:40:28.140Z,74874.41
2023-09-22T10:42:01.978Z,74882.31
2023-09-22T10:43:35.851Z,74971.25
2023-09-22T10:45:09.408Z,74892.19
2023-09-22T10:46:56.902Z,74856.63
2023-09-22T10:48:39.450Z,74884.28
2023-09-22T10:50:21.068Z,74876.38
2023-09-22T10:51:54.233Z,74864.53
2023-09-22T10:53:27.685Z,74919.88
2023-09-22T10:55:00.896Z,74923.81
2023-09-22T10:56:37.033Z,74933.69
2023-09-22T10:58:20.157Z,74929.75
2023-09-22T10:59:53.025Z,74852.66
2023-09-22T11:01:26.636Z,74846.72
2023-09-22T11:03:17.993Z,74848.72
2023-09-22T11:04:51.028Z,74826.97
2023-09-22T11:06:24.350Z,74821.03
2023-09-22T11:07:57.916Z,74821.03
2023-09-22T11:09:35.974Z,74842.78
2023-09-22T11:11:09.191Z,74848.72
2023-09-22T11:12:49.423Z,74840.81
2023-09-22T11:14:22.424Z,74876.38
2023-09-22T11:16:03.725Z,74882.31
2023-09-22T11:17:49.135Z,74870.44
2023-09-22T11:19:22.714Z,74892.19
2023-09-22T11:20:59.543Z,74884.28
2023-09-22T11:22:34.562Z,74913.94
2023-09-22T11:24:08.075Z,74884.28
2023-09-22T11:25:41.110Z,74880.34
2023-09-22T11:27:14.782Z,74898.13
2023-09-22T11:28:48.384Z,74904.06
2023-09-22T11:30:29.800Z,74892.19
2023-09-22T11:32:04.673Z,74898.13
2023-09-22T11:33:38.838Z,74911.97
2023-09-22T11:35:43.100Z,74896.16
2023-09-22T11:37:17.860Z,74904.06
2023-09-22T11:38:55.711Z,74935.69
2023-09-22T11:40:41.122Z,74959.41
2023-09-22T11:42:25.320Z,74994.97
2023-09-22T11:43:58.590Z,75014.75
2023-09-22T11:45:31.771Z,75020.66
2023-09-22T11:47:05.393Z,75034.50
2023-09-22T11:49:01.522Z,75012.75
2023-09-22T11:50:34.941Z,74989.03
2023-09-22T11:52:11.239Z,74971.25
2023-09-22T11:53:44.906Z,74941.59
2023-09-22T11:55:18.473Z,74925.78
2023-09-22T11:56:57.570Z,74919.88
2023-09-22T11:58:30.621Z,74939.63
2023-09-22T12:00:11.744Z,74979.16
2023-09-22T12:01:47.542Z,74979.16
2023-09-22T12:03:21.208Z,74987.06
2023-09-22T12:04:54.461Z,74994.97
2023-09-22T12:06:27.666Z,74961.38
2023-09-22T12:08:01.241Z,74961.38
2023-09-22T12:09:34.524Z,74981.13
2023-09-22T12:11:07.685Z,74961.38
2023-09-22T12:12:40.632Z,74935.69
2023-09-22T12:14:14.423Z,74943.59
2023-09-22T12:15:47.694Z,74979.16
2023-09-22T12:17:21.015Z,74979.16
2023-09-22T12:18:54.485Z,75004.84
2023-09-22T12:20:28.098Z,75042.41
2023-09-22T12:22:01.363Z,75006.84
2023-09-22T12:23:37.382Z,75006.84
2023-09-22T12:25:11.260Z,75020.66
2023-09-22T12:26:44.236Z,75014.75
2023-09-22T12:28:17.298Z,75022.66
2023-09-22T12:29:50.665Z,75018.69
2023-09-22T12:31:24.964Z,75050.31
2023-09-22T12:33:01.280Z,75042.41
2023-09-22T12:34:34.954Z,75066.13
2023-09-22T12:36:08.580Z,75064.16
2023-09-22T12:37:41.925Z,75064.16
2023-09-22T12:39:15.517Z,75074.03
2023-09-22T12:40:49.344Z,75089.84
2023-09-22T12:42:22.569Z,75101.72
2023-09-22T12:43:56.656Z,75089.84
2023-09-22T12:45:32.850Z,75093.81
2023-09-22T12:47:06.278Z,75097.75
2023-09-22T12:48:42.108Z,75115.56
2023-09-22T12:50:15.470Z,75127.41
2023-09-22T12:51:48.786Z,75127.41
2023-09-22T12:53:21.753Z,75127.41
2023-09-22T12:54:55.019Z,75141.25
2023-09-22T12:56:30.253Z,75129.38
2023-09-22T12:58:04.309Z,75137.28
2023-09-22T12:59:40.834Z,75139.28
2023-09-22T13:01:14.237Z,75147.19
2023-09-22T13:02:47.853Z,75133.34
2023-09-22T13:04:21.204Z,75121.47
2023-09-22T13:05:55.401Z,75113.56
2023-09-22T13:07:28.674Z,75131.38
2023-09-22T13:09:02.726Z,75131.38
2023-09-22T13:10:42.804Z,75135.31
2023-09-22T13:12:16.458Z,75141.25
2023-09-22T13:13:50.642Z,75135.31
2023-09-22T13:15:24.440Z,75145.19
2023-09-22T13:16:58.172Z,75157.06
2023-09-22T13:18:31.412Z,75161.00
2023-09-22T13:20:08.301Z,75153.09
2023-09-22T13:21:42.064Z,75168.91
2023-09-22T13:23:16.741Z,75163.00
2023-09-22T13:24:50.148Z,75176.81
2023-09-22T13:26:25.129Z,75184.72
2023-09-22T13:28:00.224Z,75182.75
2023-09-22T13:29:33.373Z,75182.75
2023-09-22T13:31:07.256Z,75196.59
2023-09-22T13:32:40.455Z,75192.63
2023-09-22T13:34:14.501Z,75198.56
2023-09-22T13:35:50.048Z,75212.41
2023-09-22T13:37:23.308Z,75214.38
2023-09-22T13:38:56.437Z,75226.25
2023-09-22T13:40:34.246Z,75232.19
2023-09-22T13:42:09.118Z,75232.19
2023-09-22T13:43:45.777Z,75238.09
2023-09-22T13:45:19.447Z,75244.03
2023-09-22T13:46:53.241Z,75255.91
2023-09-22T13:48:26.928Z,75265.78
2023-09-22T13:50:00.362Z,75267.75
2023-09-22T13:51:33.645Z,75267.75
2023-09-22T13:53:08.306Z,75281.59
2023-09-22T13:54:43.245Z,75285.53
2023-09-22T13:56:18.647Z,75295.44
2023-09-22T13:57:52.022Z,75315.19
2023-09-22T13:59:25.186Z,75315.19
2023-09-22T14:00:58.375Z,75319.16
2023-09-22T14:02:32.454Z,75325.09
2023-09-22T14:04:06.642Z,75334.97
2023-09-22T14:05:52.094Z,75331.00
2023-09-22T14:07:25.420Z,75331.00
2023-09-22T14:08:59.653Z,75334.97
2023-09-22T14:10:32.801Z,75342.88
2023-09-22T14:12:09.453Z,75340.91
2023-09-22T14:13:43.907Z,75348.81
2023-09-22T14:15:18.974Z,75358.69
2023-09-22T14:16:52.819Z,75378.47
2023-09-22T14:18:26.059Z,75386.38
2023-09-22T14:19:59.448Z,75384.38
2023-09-22T14:21:32.867Z,75396.25
2023-09-22T14:23:05.929Z,75406.13
2023-09-22T14:24:39.097Z,75410.09
2023-09-22T14:26:15.992Z,75439.75
2023-09-22T14:27:49.843Z,75447.66
2023-09-22T14:29:24.040Z,75461.47
2023-09-22T14:30:57.932Z,75469.38
2023-09-22T14:32:31.509Z,75493.13
2023-09-22T14:34:10.664Z,75504.97
2023-09-22T14:35:43.982Z,75512.88
2023-09-22T14:37:18.034Z,75526.72
2023-09-22T14:38:51.159Z,75536.59
2023-09-22T14:40:25.087Z,75556.38
2023-09-22T14:41:58.103Z,75562.31
2023-09-22T14:43:32.896Z,75576.13
2023-09-22T14:45:09.089Z,75586.03
2023-09-22T14:46:42.602Z,75591.97
2023-09-22T14:48:18.213Z,75639.41
2023-09-22T14:49:52.399Z,75595.91
2023-09-22T14:51:26.289Z,75597.88
2023-09-22T14:53:00.251Z,75597.88
2023-09-22T14:54:33.449Z,75599.88
2023-09-22T14:56:06.661Z,75595.91
2023-09-22T14:57:41.095Z,75607.78
2023-09-22T14:59:14.966Z,75597.88
2023-09-22T15:00:48.091Z,75609.75
2023-09-22T15:02:22.412Z,75601.84
2023-09-22T15:03:55.696Z,75607.78
2023-09-22T15:05:28.726Z,75641.38
2023-09-22T15:07:02.372Z,75627.53
2023-09-22T15:08:35.665Z,75649.28
2023-09-22T15:10:09.946Z,75631.50
2023-09-22T15:11:43.000Z,75641.38
2023-09-22T15:13:17.652Z,75651.25
2023-09-22T15:14:56.422Z,75690.81
2023-09-22T15:16:29.442Z,75655.22
2023-09-22T15:18:05.022Z,75665.09
2023-09-22T15:19:41.511Z,75663.13
2023-09-22T15:21:15.351Z,75673.00
2023-09-22T15:22:48.615Z,75682.91
2023-09-22T15:24:21.992Z,75678.94
2023-09-22T15:25:56.183Z,75680.91
2023-09-22T15:27:29.719Z,75682.91
2023-09-22T15:29:03.205Z,75694.75
2023-09-22T15:30:36.712Z,75700.69
2023-09-22T15:32:11.675Z,75706.63
2023-09-22T15:33:48.332Z,75710.56
2023-09-22T15:35:21.864Z,75714.53
2023-09-22T15:36:55.246Z,75722.44
2023-09-22T15:38:28.342Z,75730.34
2023-09-22T15:40:07.683Z,75730.34
2023-09-22T15:41:40.919Z,75746.16
2023-09-22T15:43:14.858Z,75752.09
2023-09-22T15:44:48.557Z,75756.03
2023-09-22T15:46:23.101Z,75760.00
2023-09-22T15:47:57.885Z,75765.94
2023-09-22T15:49:31.891Z,75773.84
2023-09-22T15:51:08.375Z,75767.91
2023-09-22T15:52:42.810Z,75773.84
2023-09-22T15:54:17.019Z,75767.91
2023-09-22T15:55:50.362Z,75793.59
2023-09-22T15:57:23.327Z,75777.78
2023-09-22T15:58:56.432Z,75785.69
2023-09-22T16:00:29.691Z,75793.59
2023-09-22T16:02:03.496Z,75793.59
2023-09-22T16:03:37.514Z,75801.50
2023-09-22T16:05:13.847Z,75807.44
2023-09-22T16:06:47.106Z,75807.44
2023-09-22T16:08:20.944Z,75805.47
2023-09-22T16:09:54.343Z,75813.38
2023-09-22T16:11:27.844Z,75813.38
2023-09-22T16:13:12.917Z,75809.41
2023-09-22T16:14:54.044Z,75821.28
2023-09-22T16:16:27.649Z,75821.28
2023-09-22T16:18:01.594Z,75829.19
2023-09-22T16:19:35.465Z,75852.91
2023-09-22T16:21:11.441Z,75837.09
2023-09-22T16:22:44.859Z,75845.00
2023-09-22T16:24:18.481Z,75848.97
2023-09-22T16:25:54.829Z,75848.97
2023-09-22T16:27:28.596Z,75860.81
2023-09-22T16:29:02.425Z,75848.97
2023-09-22T16:30:36.212Z,75856.88
2023-09-22T16:32:11.092Z,75852.91
2023-09-22T16:33:45.074Z,75852.91
2023-09-22T16:35:18.801Z,75845.00
2023-09-22T16:36:52.017Z,75843.03
2023-09-22T16:38:26.301Z,75843.03
2023-09-22T16:40:04.526Z,75852.91
2023-09-22T16:41:38.296Z,75852.91
2023-09-22T16:43:15.064Z,75848.97
2023-09-22T16:44:48.751Z,75870.72
2023-09-22T16:46:21.779Z,75856.88
2023-09-22T16:48:00.540Z,75854.91
2023-09-22T16:49:34.386Z,75848.97
2023-09-22T16:51:07.958Z,75846.97
2023-09-22T16:52:41.567Z,75841.06
2023-09-22T16:54:14.888Z,75833.16
2023-09-22T16:55:51.002Z,75829.19
2023-09-22T16:57:24.215Z,75829.19
2023-09-22T16:58:57.827Z,75823.25
2023-09-22T17:00:31.085Z,75819.31
2023-09-22T17:02:07.798Z,75817.31
2023-09-22T17:03:41.149Z,75813.38
2023-09-22T17:05:14.519Z,75809.41
2023-09-22T17:06:48.215Z,75813.38
2023-09-22T17:08:22.075Z,75819.31
2023-09-22T17:09:55.233Z,75821.28
2023-09-22T17:11:29.724Z,75821.28
2023-09-22T17:13:04.390Z,75819.31
2023-09-22T17:14:37.915Z,75827.22
2023-09-22T17:16:11.171Z,75825.25
2023-09-22T17:17:44.805Z,75839.06
2023-09-22T17:19:18.566Z,75845.00
2023-09-22T17:20:59.393Z,75860.81
2023-09-22T17:22:32.941Z,75868.72
2023-09-22T17:24:06.337Z,75864.78
2023-09-22T17:25:40.277Z,75878.63
2023-09-22T17:27:14.426Z,75894.44
2023-09-22T17:28:48.646Z,75892.47
2023-09-22T17:30:22.258Z,75896.41
2023-09-22T17:31:59.167Z,75920.13
2023-09-22T17:33:38.414Z,75906.28
2023-09-22T17:35:16.397Z,75904.31
2023-09-22T17:36:53.402Z,75914.19
2023-09-22T17:38:27.307Z,75935.94
2023-09-22T17:40:00.869Z,75933.97
2023-09-22T17:41:34.841Z,75945.84
2023-09-22T17:43:08.179Z,75967.59
2023-09-22T17:44:42.099Z,75979.44
2023-09-22T17:46:15.229Z,75989.34
2023-09-22T17:47:48.799Z,75997.25
2023-09-22T17:49:22.830Z,75991.31
2023-09-22T17:50:56.461Z,75991.31
2023-09-22T17:52:29.893Z,75987.34
2023-09-22T17:54:03.297Z,75991.31
2023-09-22T17:55:39.856Z,76007.13
2023-09-22T17:57:13.176Z,75983.41
2023-09-22T17:58:46.982Z,75989.34
2023-09-22T18:00:23.964Z,75995.25
2023-09-22T18:01:57.728Z,75999.22
2023-09-22T18:03:33.250Z,76003.16
2023-09-22T18:05:07.150Z,75999.22
2023-09-22T18:06:42.949Z,75997.25
2023-09-22T18:08:16.576Z,75997.25
2023-09-22T18:09:50.228Z,75997.25
2023-09-22T18:11:23.753Z,75987.34
2023-09-22T18:12:57.096Z,75981.44
2023-09-22T18:14:30.112Z,75975.50
2023-09-22T18:16:07.129Z,75975.50
2023-09-22T18:17:42.060Z,75973.50
2023-09-22T18:19:15.220Z,75969.56
2023-09-22T18:20:51.421Z,75969.56
2023-09-22T18:22:28.145Z,75975.50
2023-09-22T18:24:04.985Z,75987.34
2023-09-22T18:25:38.332Z,76007.13
2023-09-22T18:27:11.619Z,76034.81
2023-09-22T18:28:48.603Z,76074.34
2023-09-22T18:30:22.982Z,76100.06
2023-09-22T18:31:56.615Z,76143.56
2023-09-22T18:33:31.438Z,76145.53
2023-09-22T18:35:04.921Z,76151.47
2023-09-22T18:36:38.141Z,76163.31